Map

Track Data

SID SEASON NUMBER BASIN SUBBASIN NAME ISO_TIME NATURE LAT LON WMO_WIND WMO_PRES WMO_AGENCY TRACK_TYPE DIST2LAND LANDFALL IFLAG USA_AGENCY USA_ATCF_ID USA_LAT USA_LON USA_RECORD USA_STATUS USA_WIND USA_PRES USA_SSHS USA_R34_NE USA_R34_SE USA_R34_SW USA_R34_NW USA_R50_NE USA_R50_SE USA_R50_SW USA_R50_NW USA_R64_NE USA_R64_SE USA_R64_SW USA_R64_NW USA_POCI USA_ROCI USA_RMW USA_EYE TOKYO_LAT TOKYO_LON TOKYO_GRADE TOKYO_WIND TOKYO_PRES TOKYO_R50_DIR TOKYO_R50_LONG TOKYO_R50_SHORT TOKYO_R30_DIR TOKYO_R30_LONG TOKYO_R30_SHORT TOKYO_LAND CMA_LAT CMA_LON CMA_CAT CMA_WIND CMA_PRES HKO_LAT HKO_LON HKO_CAT HKO_WIND HKO_PRES NEWDELHI_LAT NEWDELHI_LON NEWDELHI_GRADE NEWDELHI_WIND NEWDELHI_PRES NEWDELHI_CI NEWDELHI_DP NEWDELHI_POCI REUNION_LAT REUNION_LON REUNION_TYPE REUNION_WIND REUNION_PRES REUNION_TNUM REUNION_CI REUNION_RMW REUNION_R34_NE REUNION_R34_SE REUNION_R34_SW REUNION_R34_NW REUNION_R50_NE REUNION_R50_SE REUNION_R50_SW REUNION_R50_NW REUNION_R64_NE REUNION_R64_SE REUNION_R64_SW REUNION_R64_NW BOM_LAT BOM_LON BOM_TYPE BOM_WIND BOM_PRES BOM_TNUM BOM_CI BOM_RMW BOM_R34_NE BOM_R34_SE BOM_R34_SW BOM_R34_NW BOM_R50_NE BOM_R50_SE BOM_R50_SW BOM_R50_NW BOM_R64_NE BOM_R64_SE BOM_R64_SW BOM_R64_NW BOM_ROCI BOM_POCI BOM_EYE BOM_POS_METHOD BOM_PRES_METHOD NADI_LAT NADI_LON NADI_CAT NADI_WIND NADI_PRES WELLINGTON_LAT WELLINGTON_LON WELLINGTON_WIND WELLINGTON_PRES DS824_LAT DS824_LON DS824_STAGE DS824_WIND DS824_PRES TD9636_LAT TD9636_LON TD9636_STAGE TD9636_WIND TD9636_PRES TD9635_LAT TD9635_LON TD9635_WIND TD9635_PRES TD9635_ROCI NEUMANN_LAT NEUMANN_LON NEUMANN_CLASS NEUMANN_WIND NEUMANN_PRES MLC_LAT MLC_LON MLC_CLASS MLC_WIND MLC_PRES USA_GUST BOM_GUST BOM_GUST_PER REUNION_GUST REUNION_GUST_PER USA_SEAHGT USA_SEARAD_NE USA_SEARAD_SE USA_SEARAD_SW USA_SEARAD_NW STORM_SPEED STORM_DIR
1895268N12278 1895 36 NA CS NOT_NAMED 1895-09-25 00:00:00 TS 12.0000 -82.5000 main 117 87 _____________O -1 12.0000 -82.5000 TD 30 8 321
1895268N12278 1895 36 NA CS NOT_NAMED 1895-09-25 03:00:00 TS 12.3000 -82.7499 main 87 54 _____________P -1 12.3000 -82.7499 TD 32 8 321
1895268N12278 1895 36 NA CS NOT_NAMED 1895-09-25 06:00:00 TS 12.6000 -83.0000 main 54 32 _____________O -1 12.6000 -83.0000 TS 35 8 321
1895268N12278 1895 36 NA CS NOT_NAMED 1895-09-25 09:00:00 TS 12.9000 -83.2501 main 21 0 _____________P -1 12.9000 -83.2501 TS 37 8 321
1895268N12278 1895 36 NA CS NOT_NAMED 1895-09-25 12:00:00 TS 13.2000 -83.5000 main 0 0 _____________O -1 13.2000 -83.5000 TS 40 8 321
1895268N12278 1895 36 NA NA NOT_NAMED 1895-09-25 15:00:00 TS 13.5000 -83.7501 main 0 0 _____________P -1 13.5000 -83.7501 TS 42 8 321
1895268N12278 1895 36 NA NA NOT_NAMED 1895-09-25 18:00:00 TS 13.8000 -84.0000 main 0 0 _____________O -1 13.8000 -84.0000 TS 45 8 321
1895268N12278 1895 36 NA NA NOT_NAMED 1895-09-25 21:00:00 TS 14.1000 -84.2501 main 0 0 _____________P -1 14.1000 -84.2501 TS 50 8 321
1895268N12278 1895 36 NA NA NOT_NAMED 1895-09-26 00:00:00 TS 14.4000 -84.5000 main 0 0 _____________O -1 14.4000 -84.5000 TS 55 8 321
1895268N12278 1895 36 NA NA NOT_NAMED 1895-09-26 03:00:00 TS 14.7075 -84.7500 main 0 0 _____________P -1 14.7075 -84.7500 TS 42 8 321
1895268N12278 1895 36 NA NA NOT_NAMED 1895-09-26 06:00:00 TS 15.0000 -85.0000 main 0 0 _____________O -1 15.0000 -85.0000 TD 30 7 319
1895268N12278 1895 36 NA NA NOT_NAMED 1895-09-26 09:00:00 TS 15.2574 -85.2426 main 0 0 _____________P -1 15.2574 -85.2426 TD 30 7 316
1895268N12278 1895 36 NA NA NOT_NAMED 1895-09-26 12:00:00 TS 15.5000 -85.5000 main 0 0 _____________O -1 15.5000 -85.5000 TD 30 7 313
1895268N12278 1895 36 NA NA NOT_NAMED 1895-09-26 15:00:00 TS 15.7500 -85.8000 main 0 0 _____________P -1 15.7500 -85.8000 TD 32 8 311
1895268N12278 1895 36 NA CS NOT_NAMED 1895-09-26 18:00:00 TS 16.0000 -86.1000 main 22 22 _____________O -1 16.0000 -86.1000 TS 35 7 313
1895268N12278 1895 36 NA CS NOT_NAMED 1895-09-26 21:00:00 TS 16.2499 -86.3501 main 44 44 _____________P -1 16.2499 -86.3501 TS 40 7 316
1895268N12278 1895 36 NA CS NOT_NAMED 1895-09-27 00:00:00 TS 16.5000 -86.6000 main 81 81 _____________O -1 16.5000 -86.6000 TS 45 7 313
1895268N12278 1895 36 NA CS NOT_NAMED 1895-09-27 03:00:00 TS 16.7500 -86.9000 main 111 106 _____________P -1 16.7500 -86.9000 TS 50 8 311
1895268N12278 1895 36 NA CS NOT_NAMED 1895-09-27 06:00:00 TS 17.0000 -87.2000 main 106 77 _____________O -1 17.0000 -87.2000 TS 55 7 310
1895268N12278 1895 36 NA CS NOT_NAMED 1895-09-27 09:00:00 TS 17.2200 -87.4801 main 77 53 _____________P -1 17.2200 -87.4801 TS 55 7 316
1895268N12278 1895 36 NA CS NOT_NAMED 1895-09-27 12:00:00 TS 17.5000 -87.7000 main 53 33 _____________O -1 17.5000 -87.7000 TS 55 8 335
1895268N12278 1895 36 NA CS NOT_NAMED 1895-09-27 15:00:00 TS 17.9200 -87.8301 main 33 0 _____________P -1 17.9200 -87.8301 TS 55 9 348
1895268N12278 1895 36 NA CS NOT_NAMED 1895-09-27 18:00:00 TS 18.4000 -87.9000 main 0 0 _____________O -1 18.4000 -87.9000 TS 55 9 353
1895268N12278 1895 36 NA NA NOT_NAMED 1895-09-27 21:00:00 TS 18.8500 -87.9501 main 0 0 _____________P -1 18.8500 -87.9501 TS 52 9 354
1895268N12278 1895 36 NA NA NOT_NAMED 1895-09-28 00:00:00 TS 19.3000 -88.0000 main 0 0 _____________O -1 19.3000 -88.0000 TS 50 9 351
1895268N12278 1895 36 NA NA NOT_NAMED 1895-09-28 03:00:00 TS 19.7575 -88.0999 main 0 0 _____________P -1 19.7575 -88.0999 TS 47 9 348
1895268N12278 1895 36 NA NA NOT_NAMED 1895-09-28 06:00:00 TS 20.2000 -88.2000 main 0 0 _____________O -1 20.2000 -88.2000 TS 45 9 350
1895268N12278 1895 36 NA NA NOT_NAMED 1895-09-28 09:00:00 TS 20.6300 -88.2576 main 0 0 _____________P -1 20.6300 -88.2576 TS 42 8 353
1895268N12278 1895 36 NA NA NOT_NAMED 1895-09-28 12:00:00 TS 21.0000 -88.3000 main 0 0 _____________O -1 21.0000 -88.3000 TS 40 7 351
1895268N12278 1895 36 NA NA NOT_NAMED 1895-09-28 15:00:00 TS 21.2725 -88.3575 main 0 0 _____________P -1 21.2725 -88.3575 TS 37 5 349
1895268N12278 1895 36 NA NA NOT_NAMED 1895-09-28 18:00:00 TS 21.5000 -88.4000 main 0 0 _____________O -1 21.5000 -88.4000 TS 35 5 355
1895268N12278 1895 36 NA GM NOT_NAMED 1895-09-28 21:00:00 TS 21.7500 -88.4075 main 33 22 _____________P -1 21.7500 -88.4075 TS 32 5 2
1895268N12278 1895 36 NA GM NOT_NAMED 1895-09-29 00:00:00 TS 22.0000 -88.4000 main 55 55 _____________O -1 22.0000 -88.4000 TD 30 5 2
1895268N12278 1895 36 NA GM NOT_NAMED 1895-09-29 03:00:00 TS 22.2500 -88.4075 main 89 78 _____________P -1 22.2500 -88.4075 TD 30 5 2
1895268N12278 1895 36 NA GM NOT_NAMED 1895-09-29 06:00:00 TS 22.5000 -88.4000 main 111 111 _____________O -1 22.5000 -88.4000 TD 30 5 2
1895268N12278 1895 36 NA GM NOT_NAMED 1895-09-29 09:00:00 TS 22.7949 -88.3951 main 145 145 _____________P -1 22.7949 -88.3951 TD 30 5 10
1895268N12278 1895 36 NA GM NOT_NAMED 1895-09-29 12:00:00 TS 23.0000 -88.3000 main 167 167 _____________O -1 23.0000 -88.3000 TD 30 4 59
1895268N12278 1895 36 NA GM NOT_NAMED 1895-09-29 15:00:00 TS 22.9951 -88.0298 main 167 156 _____________P -1 22.9951 -88.0298 TD 32 6 100
1895268N12278 1895 36 NA GM NOT_NAMED 1895-09-29 18:00:00 TS 22.9000 -87.7000 main 156 156 _____________O -1 22.9000 -87.7000 TS 35 5 104
1895268N12278 1895 36 NA GM NOT_NAMED 1895-09-29 21:00:00 TS 22.8721 -87.4878 main 157 145 _____________P -1 22.8721 -87.4878 TS 37 5 102
1895268N12278 1895 36 NA GM NOT_NAMED 1895-09-30 00:00:00 TS 22.8000 -87.2000 main 145 124 _____________O -1 22.8000 -87.2000 TS 40 8 109
1895268N12278 1895 36 NA GM NOT_NAMED 1895-09-30 03:00:00 TS 22.6227 -86.6948 main 126 123 _____________P -1 22.6227 -86.6948 TS 42 11 111
1895268N12278 1895 36 NA GM NOT_NAMED 1895-09-30 06:00:00 TS 22.4000 -86.1000 main 126 61 _____________O -1 22.4000 -86.1000 TS 45 12 111
1895268N12278 1895 36 NA GM NOT_NAMED 1895-09-30 09:00:00 TS 22.1853 -85.4823 main 61 11 _____________P -1 22.1853 -85.4823 TS 47 11 111
1895268N12278 1895 36 NA GM NOT_NAMED 1895-09-30 12:00:00 TS 22.0000 -85.0000 main 11 0 _____________O -1 22.0000 -85.0000 TS 50 7 117
1895268N12278 1895 36 NA NA NOT_NAMED 1895-09-30 15:00:00 TS 21.8772 -84.8328 main 0 0 _____________P -1 21.8772 -84.8328 TS 52 3 137
1895268N12278 1895 36 NA CS NOT_NAMED 1895-09-30 18:00:00 TS 21.8000 -84.8000 main 0 0 _____________O -1 21.8000 -84.8000 TS 55 2 137
1895268N12278 1895 36 NA CS NOT_NAMED 1895-09-30 21:00:00 TS 21.7425 -84.7000 main 15 15 _____________P -1 21.7425 -84.7000 TS 55 2 119
1895268N12278 1895 36 NA CS NOT_NAMED 1895-10-01 00:00:00 TS 21.7000 -84.6000 main 15 11 _____________O -1 21.7000 -84.6000 TS 55 2 116
1895268N12278 1895 36 NA CS NOT_NAMED 1895-10-01 03:00:00 TS 21.6500 -84.4925 main 11 11 _____________P -1 21.6500 -84.4925 TS 55 2 119
1895268N12278 1895 36 NA CS NOT_NAMED 1895-10-01 06:00:00 TS 21.6000 -84.4000 main 24 24 _____________O -1 21.6000 -84.4000 TS 55 2 135
1895268N12278 1895 36 NA CS NOT_NAMED 1895-10-01 09:00:00 TS 21.5274 -84.3650 main 35 35 _____________P -1 21.5274 -84.3650 TS 55 1 137
1895268N12278 1895 36 NA CS NOT_NAMED 1895-10-01 12:00:00 TS 21.5000 -84.3000 main 39 33 _____________O -1 21.5000 -84.3000 TS 55 2 77
1895268N12278 1895 36 NA CS NOT_NAMED 1895-10-01 15:00:00 TS 21.5698 -84.1599 main 33 22 _____________P -1 21.5698 -84.1599 TS 55 4 62
1895268N12278 1895 36 NA CS NOT_NAMED 1895-10-01 18:00:00 TS 21.7000 -83.9000 main 24 24 _____________O -1 21.7000 -83.9000 TS 55 7 67
1895268N12278 1895 36 NA CS NOT_NAMED 1895-10-01 21:00:00 TS 21.8274 -83.5098 main 41 15 _____________P -1 21.8274 -83.5098 TS 52 9 70
1895268N12278 1895 36 NA CS NOT_NAMED 1895-10-02 00:00:00 TS 22.0000 -83.0000 main 22 22 _____________O -1 22.0000 -83.0000 TS 50 11 68
1895268N12278 1895 36 NA CS NOT_NAMED 1895-10-02 03:00:00 TS 22.2349 -82.4300 main 30 0 _____________P -1 22.2349 -82.4300 TS 50 12 66
1895268N12278 1895 36 NA CS NOT_NAMED 1895-10-02 06:00:00 TS 22.5000 -81.8000 main 11 0 _____________O -1 22.5000 -81.8000 TS 50 13 68
1895268N12278 1895 36 NA NA NOT_NAMED 1895-10-02 09:00:00 TS 22.7122 -81.1642 main 0 0 _____________P -1 22.7122 -81.1642 TS 50 13 67
1895268N12278 1895 36 NA NA NOT_NAMED 1895-10-02 12:00:00 TS 23.0000 -80.5000 main 0 0 _____________O -1 23.0000 -80.5000 TS 50 15 59
1895268N12278 1895 36 NA NA NOT_NAMED 1895-10-02 15:00:00 TS 23.4623 -79.8076 main 70 70 _____________P -1 23.4623 -79.8076 TS 50 16 52
1895268N12278 1895 36 NA NA NOT_NAMED 1895-10-02 18:00:00 TS 24.0000 -79.1000 main 90 10 _____________O -1 24.0000 -79.1000 TS 50 17 51
1895268N12278 1895 36 NA NA NOT_NAMED 1895-10-02 21:00:00 TS 24.4997 -78.3994 main 10 0 _____________P -1 24.4997 -78.3994 TS 50 16 52
1895268N12278 1895 36 NA NA NOT_NAMED 1895-10-03 00:00:00 TS 25.0000 -77.7000 main 23 23 _____________O -1 25.0000 -77.7000 TS 50 16 51
1895268N12278 1895 36 NA NA NOT_NAMED 1895-10-03 03:00:00 TS 25.5373 -76.9927 main 109 109 _____________P -1 25.5373 -76.9927 TS 50 16 52
1895268N12278 1895 36 NA NA NOT_NAMED 1895-10-03 06:00:00 TS 26.0000 -76.3000 main 197 197 _____________O -1 26.0000 -76.3000 TS 50 14 59
1895268N12278 1895 36 NA NA NOT_NAMED 1895-10-03 09:00:00 TS 26.2799 -75.6191 main 275 275 _____________P -1 26.2799 -75.6191 TS 50 13 67
1895268N12278 1895 36 NA NA NOT_NAMED 1895-10-03 12:00:00 TS 26.5000 -75.0000 main 338 338 _____________O -1 26.5000 -75.0000 TS 50 11 63
1895268N12278 1895 36 NA NA NOT_NAMED 1895-10-03 15:00:00 TS 26.7921 -74.4772 main 397 397 _____________P -1 26.7921 -74.4772 TS 50 11 56
1895268N12278 1895 36 NA NA NOT_NAMED 1895-10-03 18:00:00 TS 27.1000 -74.0000 main 457 457 _____________O -1 27.1000 -74.0000 TS 50 11 55
1895268N12278 1895 36 NA NA NOT_NAMED 1895-10-03 21:00:00 TS 27.3998 -73.4997 main 516 516 _____________P -1 27.3998 -73.4997 TS 50 11 56
1895268N12278 1895 36 NA NA NOT_NAMED 1895-10-04 00:00:00 TS 27.7000 -73.0000 main 576 576 _____________O -1 27.7000 -73.0000 TS 50 11 56
1895268N12278 1895 36 NA NA NOT_NAMED 1895-10-04 03:00:00 TS 28.0073 -72.4998 main 635 635 _____________P -1 28.0073 -72.4998 TS 50 11 56
1895268N12278 1895 36 NA NA NOT_NAMED 1895-10-04 06:00:00 TS 28.3000 -72.0000 main 694 694 _____________O -1 28.3000 -72.0000 TS 50 10 58
1895268N12278 1895 36 NA NA NOT_NAMED 1895-10-04 09:00:00 TS 28.5498 -71.4995 main 747 747 _____________P -1 28.5498 -71.4995 TS 50 10 60
1895268N12278 1895 36 NA NA NOT_NAMED 1895-10-04 12:00:00 TS 28.8000 -71.0000 main 806 806 _____________O -1 28.8000 -71.0000 TS 50 10 58
1895268N12278 1895 36 NA NA NOT_NAMED 1895-10-04 15:00:00 TS 29.0998 -70.4999 main 842 840 _____________P -1 29.0998 -70.4999 TS 50 11 56
1895268N12278 1895 36 NA NA NOT_NAMED 1895-10-04 18:00:00 TS 29.4000 -70.0000 main 850 849 _____________O -1 29.4000 -70.0000 TS 50 10 58
1895268N12278 1895 36 NA NA NOT_NAMED 1895-10-04 21:00:00 TS 29.6498 -69.4995 main 869 861 _____________P -1 29.6498 -69.4995 TS 47 10 60
1895268N12278 1895 36 NA NA NOT_NAMED 1895-10-05 00:00:00 TS 29.9000 -69.0000 main 882 882 _____________O -1 29.9000 -69.0000 TS 45 10 58
1895268N12278 1895 36 NA NA NOT_NAMED 1895-10-05 03:00:00 TS 30.1998 -68.4999 main 897 897 _____________P -1 30.1998 -68.4999 TS 45 11 55
1895268N12278 1895 36 NA NA NOT_NAMED 1895-10-05 06:00:00 TS 30.5000 -68.0000 main 913 912 _____________O -1 30.5000 -68.0000 TS 45 10 61
1895268N12278 1895 36 NA NA NOT_NAMED 1895-10-05 09:00:00 TS 30.6900 -67.4765 main 934 934 _____________P -1 30.6900 -67.4765 TS 45 10 60
1895268N12278 1895 36 NA NA NOT_NAMED 1895-10-05 12:00:00 TS 31.0000 -67.0000 main 951 937 _____________O -1 31.0000 -67.0000 TS 45 12 37
1895268N12278 1895 36 NA NA NOT_NAMED 1895-10-05 15:00:00 TS 31.6397 -66.6275 main 945 922 _____________P -1 31.6397 -66.6275 TS 45 15 23
1895268N12278 1895 36 NA NA NOT_NAMED 1895-10-05 18:00:00 TS 32.4000 -66.3000 main 925 919 _____________O -1 32.4000 -66.3000 TS 45 15 22
1895268N12278 1895 36 NA NA NOT_NAMED 1895-10-05 21:00:00 TS 33.0574 -65.9494 main 928 923 _____________P -1 33.0574 -65.9494 TS 45 14 24
1895268N12278 1895 36 NA NA NOT_NAMED 1895-10-06 00:00:00 TS 33.7000 -65.6000 main 931 920 _____________O -1 33.7000 -65.6000 TS 45 14 24
1895268N12278 1895 36 NA NA NOT_NAMED 1895-10-06 03:00:00 TS 34.3499 -65.2495 main 924 867 _____________P -1 34.3499 -65.2495 TS 45 14 24
1895268N12278 1895 36 NA NA NOT_NAMED 1895-10-06 06:00:00 TS 35.0000 -64.9000 main 867 819 _____________O -1 35.0000 -64.9000 TS 45 14 21
1895268N12278 1895 36 NA NA NOT_NAMED 1895-10-06 09:00:00 TS 35.6334 -64.6513 main 819 781 _____________P -1 35.6334 -64.6513 TS 45 14 24
1895268N12278 1895 36 NA NA NOT_NAMED 1895-10-06 12:00:00 TS 36.3000 -64.2000 main 781 751 _____________O -1 36.3000 -64.2000 TS 45 982 17 41
1895268N12278 1895 36 NA NA NOT_NAMED 1895-10-06 15:00:00 TS 36.9464 -63.2521 main 753 695 _____________P -1 36.9464 -63.2521 TS 45 23 48
1895268N12278 1895 36 NA NA NOT_NAMED 1895-10-06 18:00:00 ET 37.8000 -62.1000 main 688 610 _____________O -1 37.8000 -62.1000 EX 45 27 40
1895268N12278 1895 36 NA NA NOT_NAMED 1895-10-06 21:00:00 ET 39.0371 -61.0416 main 615 526 _____________P -1 39.0371 -61.0416 EX 42 32 31
1895268N12278 1895 36 NA NA NOT_NAMED 1895-10-07 00:00:00 ET 40.5000 -60.0000 main 519 403 _____________O -1 40.5000 -60.0000 EX 40 33 28
1895268N12278 1895 36 NA NA NOT_NAMED 1895-10-07 03:00:00 ET 41.9391 -58.9864 main 403 304 _____________P -1 41.9391 -58.9864 EX 40 33 26
1895268N12278 1895 36 NA NA NOT_NAMED 1895-10-07 06:00:00 ET 43.5000 -58.0000 main 300 217 _____________O -1 43.5000 -58.0000 EX 40 36 24
1895268N12278 1895 36 NA NA NOT_NAMED 1895-10-07 09:00:00 ET 45.2091 -57.0165 main 203 13 _____________P -1 45.2091 -57.0165 EX 40 38 22
1895268N12278 1895 36 NA NA NOT_NAMED 1895-10-07 12:00:00 ET 47.0000 -56.0000 main 0 _____________O -1 47.0000 -56.0000 EX 40 38 21

About IBTrACS Database

This database is a web-friendly format of International Best Track Archive for Climate Stewardship (IBTrACS), a global best track data archive curated by NOAA dating back to 1842.

Updated: 2021-12-06